Time;durP1;ratioP1;P1;durP2;ratioP2;P2;SDS_P1;SDS_P2;PMS_P1;PMS_P2;Temp;Humidity;BMP_temperature;BMP_pressure;BME280_temperature;BME280_humidity;BME280_pressure;Samples;Min_cycle;Max_cycle;Signal;HPM_P1;HPM_P2
2023/08/27 00:01:21;;;;;;;2.58;1.70;;;;;;;15.83;100.00;100180.75;5226409;28;20029;-71
2023/08/27 00:03:51;;;;;;;5.93;1.60;;;;;;;16.05;100.00;100194.28;5231861;28;20501;-71
2023/08/27 00:06:22;;;;;;;3.70;1.30;;;;;;;16.01;100.00;100184.88;5230125;28;20028;-72
2023/08/27 00:08:52;;;;;;;3.05;1.52;;;;;;;15.93;100.00;100187.13;5233300;28;20024;-71
2023/08/27 00:11:22;;;;;;;3.10;1.67;;;;;;;16.13;100.00;100179.66;5235672;28;20036;-71
2023/08/27 00:13:54;;;;;;;5.85;1.60;;;;;;;16.04;100.00;100185.50;5237121;28;20028;-71
2023/08/27 00:16:25;;;;;;;2.20;1.40;;;;;;;15.90;100.00;100197.88;5230444;28;20024;-70
2023/08/27 00:18:55;;;;;;;3.15;1.40;;;;;;;15.83;100.00;100184.22;5236916;28;20506;-71
2023/08/27 00:21:25;;;;;;;3.75;1.40;;;;;;;15.95;100.00;100185.25;5238464;28;20020;-71
2023/08/27 00:23:56;;;;;;;1.88;1.27;;;;;;;15.98;100.00;100178.00;5237337;28;20460;-71
2023/08/27 00:26:26;;;;;;;3.22;1.20;;;;;;;15.95;100.00;100190.50;5235445;28;20024;-71
2023/08/27 00:28:58;;;;;;;2.42;1.30;;;;;;;15.95;100.00;100179.97;5231748;28;20028;-71
2023/08/27 00:31:28;;;;;;;3.63;1.60;;;;;;;15.87;100.00;100193.63;5236998;28;20032;-71
2023/08/27 00:33:59;;;;;;;3.83;1.10;;;;;;;15.84;100.00;100193.84;5237136;28;20127;-71
2023/08/27 00:36:29;;;;;;;2.80;1.40;;;;;;;15.78;100.00;100182.81;5216187;28;20029;-71
2023/08/27 00:38:59;;;;;;;2.45;1.50;;;;;;;15.66;100.00;100168.63;5233170;28;20529;-70
2023/08/27 00:41:30;;;;;;;3.25;1.70;;;;;;;15.88;100.00;100158.44;5237578;28;20029;-71
2023/08/27 00:44:00;;;;;;;3.13;1.50;;;;;;;15.87;100.00;100156.75;5235599;28;20025;-70
2023/08/27 00:46:30;;;;;;;1.70;1.15;;;;;;;15.80;100.00;100159.84;5226402;28;20056;-71
2023/08/27 00:49:01;;;;;;;2.90;1.30;;;;;;;15.70;100.00;100146.41;5221180;28;20036;-70
2023/08/27 00:51:32;;;;;;;4.20;1.45;;;;;;;15.85;100.00;100137.53;5219104;28;20022;-71
2023/08/27 00:54:04;;;;;;;2.45;1.35;;;;;;;15.71;100.00;100145.47;5224911;28;20060;-70
2023/08/27 00:56:34;;;;;;;4.25;1.48;;;;;;;15.63;100.00;100139.00;5222601;28;20025;-71
2023/08/27 00:59:05;;;;;;;5.22;1.40;;;;;;;15.47;100.00;100152.28;5232747;28;20035;-71
2023/08/27 01:01:37;;;;;;;2.45;1.40;;;;;;;15.46;100.00;100147.09;5222415;28;20032;-71
2023/08/27 01:04:07;;;;;;;2.45;1.35;;;;;;;15.45;100.00;100148.91;5222811;28;20032;-71
2023/08/27 01:06:38;;;;;;;3.25;1.30;;;;;;;15.51;100.00;100143.25;5228188;28;20074;-71
2023/08/27 01:09:30;;;;;;;2.45;1.27;;;;;;;15.42;100.00;100141.22;5248022;22;20506;-77
2023/08/27 01:12:31;;;;;;;2.97;1.50;;;;;;;15.52;100.00;100139.66;5230485;28;20034;-75
2023/08/27 01:15:03;;;;;;;1.80;1.05;;;;;;;15.58;100.00;100122.63;5234753;28;20032;-75
2023/08/27 01:17:35;;;;;;;5.18;1.45;;;;;;;15.66;100.00;100125.63;5228885;28;20387;-76
2023/08/27 01:20:06;;;;;;;3.50;1.40;;;;;;;15.63;100.00;100125.81;5213791;28;20222;-76
2023/08/27 01:22:37;;;;;;;3.08;1.10;;;;;;;15.59;100.00;100116.44;5217351;28;20029;-77
2023/08/27 01:25:09;;;;;;;4.30;1.38;;;;;;;15.62;100.00;100113.59;5217209;28;20043;-77
2023/08/27 01:27:49;;;;;;;3.63;1.23;;;;;;;15.73;100.00;100106.69;5216944;28;20033;-77
2023/08/27 01:30:27;;;;;;;2.75;1.33;;;;;;;15.79;100.00;100093.16;5215421;28;20028;-77
2023/08/27 01:33:08;;;;;;;2.80;1.50;;;;;;;15.74;100.00;100097.84;5214884;28;20032;-77
2023/08/27 01:35:40;;;;;;;2.33;1.02;;;;;;;15.85;100.00;100089.28;5214628;28;20028;-77
2023/08/27 01:38:12;;;;;;;2.28;1.10;;;;;;;15.72;100.00;100089.19;5217104;28;20520;-76
2023/08/27 01:40:43;;;;;;;2.42;1.15;;;;;;;15.67;100.00;100086.03;5211819;28;20040;-75
2023/08/27 01:43:14;;;;;;;2.67;1.38;;;;;;;15.67;100.00;100075.47;5213036;28;20029;-76
2023/08/27 01:45:44;;;;;;;2.38;1.20;;;;;;;15.86;100.00;100070.72;5216075;28;20031;-77
2023/08/27 01:48:14;;;;;;;2.95;1.15;;;;;;;15.77;100.00;100075.72;5213701;28;20041;-77
2023/08/27 01:50:45;;;;;;;3.17;1.20;;;;;;;15.69;100.00;100076.22;5216391;28;20473;-77
2023/08/27 01:53:15;;;;;;;3.53;1.25;;;;;;;15.65;100.00;100064.19;5215558;28;20107;-76
2023/08/27 01:55:45;;;;;;;2.33;1.10;;;;;;;15.64;100.00;100065.16;5216237;28;20406;-77
2023/08/27 01:58:16;;;;;;;2.15;1.20;;;;;;;15.82;100.00;100079.78;5205168;28;20435;-77
2023/08/27 02:00:48;;;;;;;3.53;1.10;;;;;;;15.49;100.00;100087.19;5215186;28;20021;-76
2023/08/27 02:03:19;;;;;;;2.28;1.13;;;;;;;15.54;100.00;100081.63;5211967;28;20026;-77
2023/08/27 02:05:49;;;;;;;4.53;1.20;;;;;;;15.60;100.00;100074.19;5216206;28;20367;-75
2023/08/27 02:08:19;;;;;;;3.20;1.20;;;;;;;15.61;100.00;100078.53;5212294;28;20390;-77
2023/08/27 02:10:50;;;;;;;2.03;1.15;;;;;;;15.84;100.00;100083.16;5214949;28;20032;-77
2023/08/27 02:13:20;;;;;;;4.18;1.50;;;;;;;15.67;100.00;100087.81;5214243;28;20029;-77
2023/08/27 02:15:50;;;;;;;2.33;1.30;;;;;;;15.74;100.00;100091.75;5211139;28;20112;-77
2023/08/27 02:18:21;;;;;;;3.72;1.27;;;;;;;15.56;100.00;100088.47;5215089;28;20471;-77
2023/08/27 02:20:51;;;;;;;3.15;1.20;;;;;;;15.60;100.00;100087.38;5215566;28;20064;-77
2023/08/27 02:23:22;;;;;;;3.70;1.55;;;;;;;15.70;100.00;100085.81;5213372;28;20025;-76
2023/08/27 02:25:53;;;;;;;3.60;1.20;;;;;;;15.64;100.00;100086.22;5215244;28;20036;-77
2023/08/27 02:28:23;;;;;;;6.68;1.30;;;;;;;15.64;100.00;100086.22;5214214;28;20021;-77
2023/08/27 02:30:55;;;;;;;4.28;1.30;;;;;;;15.57;100.00;100089.34;5213989;28;20066;-77
2023/08/27 02:33:25;;;;;;;3.92;1.20;;;;;;;15.64;100.00;100080.09;5209045;28;20391;-77
2023/08/27 02:35:56;;;;;;;1.45;0.75;;;;;;;15.67;100.00;100087.81;5212979;28;20045;-76
2023/08/27 02:38:26;;;;;;;2.53;1.23;;;;;;;15.46;100.00;100087.38;5211747;28;20021;-74
2023/08/27 02:40:56;;;;;;;3.40;1.38;;;;;;;15.58;100.00;100083.13;5211201;28;20108;-77
2023/08/27 02:43:27;;;;;;;3.97;1.58;;;;;;;15.65;100.00;100066.84;5215002;28;20406;-74
2023/08/27 02:45:57;;;;;;;1.95;1.35;;;;;;;15.77;100.00;100066.06;5209643;28;20074;-77
2023/08/27 02:48:27;;;;;;;2.83;1.20;;;;;;;15.86;100.00;100075.97;5210686;28;20060;-75
2023/08/27 02:50:58;;;;;;;2.88;1.33;;;;;;;15.91;100.00;100073.88;5210233;28;20439;-77
2023/08/27 02:53:28;;;;;;;2.55;1.10;;;;;;;15.93;100.00;100069.38;5209941;28;20029;-74
2023/08/27 02:55:58;;;;;;;2.85;1.13;;;;;;;15.89;100.00;100067.03;5209552;28;20033;-77
2023/08/27 02:58:28;;;;;;;4.43;1.65;;;;;;;15.90;100.00;100060.81;5209301;28;20376;-76
2023/08/27 03:00:59;;;;;;;4.28;1.63;;;;;;;15.82;100.00;100058.69;5209534;28;20116;-77
2023/08/27 03:03:29;;;;;;;5.47;1.40;;;;;;;15.90;100.00;100045.84;5206638;28;20032;-76
2023/08/27 03:06:00;;;;;;;2.60;1.40;;;;;;;15.76;100.00;100051.19;5209915;28;20512;-77
2023/08/27 03:08:30;;;;;;;4.18;1.50;;;;;;;15.84;100.00;100055.97;5208386;28;20031;-77
2023/08/27 03:11:00;;;;;;;3.50;1.42;;;;;;;15.82;100.00;100053.41;5208569;28;20580;-77
2023/08/27 03:13:31;;;;;;;3.45;1.80;;;;;;;15.76;100.00;100056.47;5209233;28;20040;-76
2023/08/27 03:16:01;;;;;;;4.88;1.45;;;;;;;15.86;100.00;100054.06;5210258;28;20083;-77
2023/08/27 03:18:33;;;;;;;2.63;1.35;;;;;;;15.82;100.00;100048.16;5208784;28;20034;-77
2023/08/27 03:21:03;;;;;;;4.60;1.20;;;;;;;15.87;100.00;100046.03;5209054;28;20095;-76
2023/08/27 03:23:36;;;;;;;2.67;1.33;;;;;;;15.86;100.00;100048.78;5210508;28;20434;-77
2023/08/27 03:26:07;;;;;;;4.82;1.50;;;;;;;15.78;100.00;100051.06;5208951;28;20251;-77
2023/08/27 03:28:37;;;;;;;3.55;1.27;;;;;;;15.79;100.00;100052.75;5209308;28;20071;-77
2023/08/27 03:31:08;;;;;;;3.50;1.40;;;;;;;15.83;100.00;100057.75;5208281;28;20052;-77
2023/08/27 03:33:38;;;;;;;2.90;1.20;;;;;;;15.83;100.00;100055.09;5205916;28;20027;-77
2023/08/27 03:36:08;;;;;;;3.40;1.60;;;;;;;15.89;100.00;100044.16;5209123;28;20040;-77
2023/08/27 03:38:39;;;;;;;2.72;1.58;;;;;;;15.82;100.00;100037.59;5207735;28;20021;-77
2023/08/27 03:41:09;;;;;;;2.17;1.20;;;;;;;15.91;100.00;100023.81;5208375;28;20082;-76
2023/08/27 03:43:39;;;;;;;2.88;1.05;;;;;;;15.99;100.00;100029.44;5206944;28;20060;-77
2023/08/27 03:46:09;;;;;;;2.72;0.98;;;;;;;15.93;100.00;100029.00;5210814;28;20024;-77
2023/08/27 03:48:40;;;;;;;3.05;1.33;;;;;;;15.95;100.00;100030.59;5214516;28;20025;-77
2023/08/27 03:51:10;;;;;;;2.65;1.30;;;;;;;15.89;100.00;100015.16;5215039;28;20433;-77
2023/08/27 03:53:40;;;;;;;1.90;1.20;;;;;;;15.85;100.00;100010.22;5214835;28;20116;-77
2023/08/27 03:56:11;;;;;;;5.35;1.35;;;;;;;15.74;100.00;100012.69;5212976;28;20025;-77
2023/08/27 03:58:41;;;;;;;3.75;1.30;;;;;;;15.76;100.00;100022.22;5213975;28;20056;-77
2023/08/27 04:01:12;;;;;;;3.28;1.30;;;;;;;15.76;100.00;100021.34;5212536;28;20448;-77
2023/08/27 04:03:42;;;;;;;2.22;1.02;;;;;;;15.80;100.00;100022.81;5212261;28;20036;-77
2023/08/27 04:06:13;;;;;;;2.10;1.20;;;;;;;15.85;100.00;100028.66;5214535;28;20021;-76
2023/08/27 04:08:43;;;;;;;2.13;1.08;;;;;;;15.89;100.00;100033.59;5214802;28;20033;-77
2023/08/27 04:11:15;;;;;;;2.33;0.98;;;;;;;15.82;100.00;100045.50;5214413;28;20052;-77
2023/08/27 04:13:46;;;;;;;3.05;1.30;;;;;;;15.72;100.00;100052.31;5214036;28;20032;-77
2023/08/27 04:16:16;;;;;;;4.93;1.23;;;;;;;15.81;100.00;100042.97;5215352;28;20033;-77
2023/08/27 04:18:46;;;;;;;4.03;1.23;;;;;;;15.90;100.00;100052.91;5214254;28;20044;-76
2023/08/27 04:21:16;;;;;;;2.38;1.00;;;;;;;15.90;100.00;100058.19;5213370;28;20084;-77
2023/08/27 04:23:47;;;;;;;2.65;1.15;;;;;;;15.94;100.00;100057.03;5212521;28;20072;-77
2023/08/27 04:26:18;;;;;;;2.58;1.30;;;;;;;16.09;100.00;100069.22;5213414;28;20060;-77
2023/08/27 04:28:50;;;;;;;3.10;1.50;;;;;;;16.06;100.00;100062.34;5213249;28;20327;-73
2023/08/27 04:31:21;;;;;;;3.05;1.17;;;;;;;15.95;100.00;100075.41;5213758;28;20120;-77
2023/08/27 04:33:51;;;;;;;3.63;1.40;;;;;;;15.87;100.00;100080.31;5215549;28;20025;-77
2023/08/27 04:36:22;;;;;;;5.70;1.17;;;;;;;15.90;100.00;100090.66;5212501;28;20024;-73
2023/08/27 04:38:52;;;;;;;3.90;1.52;;;;;;;16.02;100.00;100081.94;5211535;28;20040;-77
2023/08/27 04:41:22;;;;;;;4.50;1.20;;;;;;;16.00;100.00;100081.22;5212581;28;20024;-73
2023/08/27 04:43:53;;;;;;;3.25;1.30;;;;;;;16.06;100.00;100087.88;5213759;28;20033;-77
2023/08/27 04:46:23;;;;;;;3.40;1.33;;;;;;;16.04;100.00;100100.31;5217091;28;20029;-73
2023/08/27 04:48:53;;;;;;;2.35;1.30;;;;;;;16.07;100.00;100100.09;5214129;28;20033;-77
2023/08/27 04:51:27;;;;;;;3.42;1.15;;;;;;;16.08;100.00;100093.88;5211375;28;20470;-74
2023/08/27 04:53:57;;;;;;;3.22;1.40;;;;;;;16.16;100.00;100084.53;5215031;28;20028;-77
2023/08/27 04:56:28;;;;;;;3.28;1.02;;;;;;;16.15;100.00;100080.19;5212252;28;20135;-77
2023/08/27 04:58:58;;;;;;;2.92;1.35;;;;;;;16.18;100.00;100090.53;5210196;28;20327;-77
2023/08/27 05:01:28;;;;;;;2.25;1.10;;;;;;;16.19;100.00;100094.88;5210883;28;20500;-74
2023/08/27 05:03:59;;;;;;;4.18;1.30;;;;;;;16.24;100.00;100076.13;5209434;28;20040;-77
2023/08/27 05:06:29;;;;;;;2.63;1.23;;;;;;;16.32;100.00;100074.66;5209623;28;20029;-75
2023/08/27 05:08:59;;;;;;;4.03;1.45;;;;;;;16.39;100.00;100072.50;5207254;28;20060;-77
2023/08/27 05:11:29;;;;;;;3.83;1.38;;;;;;;16.32;100.00;100077.28;5207314;28;20028;-76
2023/08/27 05:14:00;;;;;;;2.53;1.08;;;;;;;16.21;100.00;100066.59;5207903;28;20033;-77
2023/08/27 05:16:32;;;;;;;4.00;1.10;;;;;;;16.28;100.00;100057.34;5215271;28;20391;-76
2023/08/27 05:19:02;;;;;;;2.97;1.20;;;;;;;16.20;100.00;100054.38;5207405;28;20548;-77
2023/08/27 05:21:32;;;;;;;1.98;1.17;;;;;;;16.13;100.00;100042.56;5205567;28;20320;-77
2023/08/27 05:24:03;;;;;;;2.80;1.50;;;;;;;16.25;100.00;100031.16;5213492;28;20025;-77
2023/08/27 05:26:33;;;;;;;2.28;1.30;;;;;;;16.23;100.00;100033.06;5211444;28;20176;-77
2023/08/27 05:29:04;;;;;;;5.38;1.23;;;;;;;16.23;100.00;100033.06;5211711;28;20048;-77
2023/08/27 05:31:34;;;;;;;3.33;1.30;;;;;;;16.15;100.00;100022.19;5208555;28;20033;-76
2023/08/27 05:34:04;;;;;;;4.53;1.30;;;;;;;16.30;100.00;100029.09;5213221;28;20552;-76
2023/08/27 05:36:35;;;;;;;6.32;1.02;;;;;;;16.30;100.00;100029.09;5211385;28;20030;-77
2023/08/27 05:39:05;;;;;;;3.30;1.35;;;;;;;16.25;100.00;100039.06;5212859;28;20029;-77
2023/08/27 05:41:35;;;;;;;2.67;1.20;;;;;;;16.40;100.00;100040.72;5208643;28;20032;-77
2023/08/27 05:44:06;;;;;;;3.22;1.10;;;;;;;16.42;100.00;100028.25;5210526;28;20549;-77
2023/08/27 05:46:36;;;;;;;3.88;1.45;;;;;;;16.62;100.00;100032.19;5207538;28;20029;-77
2023/08/27 05:49:06;;;;;;;3.97;1.38;;;;;;;16.49;100.00;100037.47;5208976;28;21107;-76
2023/08/27 05:51:37;;;;;;;4.72;1.40;;;;;;;16.52;100.00;100036.41;5206573;28;20053;-77
2023/08/27 05:54:08;;;;;;;2.10;1.30;;;;;;;16.60;100.00;100026.19;5210130;28;20198;-76
2023/08/27 05:56:38;;;;;;;3.03;1.50;;;;;;;16.48;100.00;100014.66;5208703;28;20056;-77
2023/08/27 05:59:09;;;;;;;4.35;1.08;;;;;;;16.59;100.00;100019.22;5209143;28;20368;-76
2023/08/27 06:01:41;;;;;;;2.80;1.20;;;;;;;16.79;100.00;100024.81;5209437;28;20051;-77
2023/08/27 06:04:11;;;;;;;5.30;1.48;;;;;;;16.88;100.00;100026.78;5207716;28;20024;-74
2023/08/27 06:06:41;;;;;;;2.50;1.40;;;;;;;16.88;100.00;100034.72;5208688;28;20029;-76
2023/08/27 06:09:11;;;;;;;2.70;1.13;;;;;;;16.99;100.00;100038.28;5210836;28;20029;-76
2023/08/27 06:11:42;;;;;;;4.40;1.33;;;;;;;17.12;100.00;100041.75;5209102;28;20028;-77
2023/08/27 06:14:13;;;;;;;2.30;1.50;;;;;;;17.07;100.00;100045.66;5209758;28;20094;-76
2023/08/27 06:16:43;;;;;;;2.78;1.50;;;;;;;16.91;100.00;100031.84;5204371;28;20034;-76
2023/08/27 06:19:13;;;;;;;3.83;1.60;;;;;;;16.99;100.00;100024.25;5209772;28;20502;-76
2023/08/27 06:21:43;;;;;;;2.78;1.55;;;;;;;17.10;100.00;100024.31;5210432;28;20092;-77
2023/08/27 06:24:14;;;;;;;2.60;1.33;;;;;;;17.24;100.00;100024.19;5213574;28;20033;-77
2023/08/27 06:26:44;;;;;;;3.28;1.75;;;;;;;17.31;100.00;100028.09;5210386;28;20179;-76
2023/08/27 06:29:14;;;;;;;2.72;1.42;;;;;;;17.47;100.00;100023.44;5211116;28;20095;-76
2023/08/27 06:31:45;;;;;;;2.88;1.50;;;;;;;17.27;100.00;100029.25;5210710;28;20035;-77
2023/08/27 06:34:15;;;;;;;2.70;1.40;;;;;;;17.28;100.00;100023.03;5208620;28;20390;-77
2023/08/27 06:36:45;;;;;;;2.15;1.30;;;;;;;17.10;100.00;100016.41;5211760;28;20105;-77
2023/08/27 06:39:15;;;;;;;2.75;1.40;;;;;;;17.23;100.00;100025.16;5210942;28;20029;-75
2023/08/27 06:41:46;;;;;;;3.03;1.55;;;;;;;17.24;100.00;100040.03;5207479;28;20029;-77
2023/08/27 06:44:16;;;;;;;3.13;1.52;;;;;;;17.26;100.00;100025.78;5205055;28;20450;-77
2023/08/27 06:46:47;;;;;;;2.67;1.20;;;;;;;17.28;100.00;100031.78;5207750;28;20035;-76
2023/08/27 06:49:17;;;;;;;2.17;1.20;;;;;;;17.37;100.00;100019.75;5207045;28;20025;-74
2023/08/27 06:51:47;;;;;;;3.72;1.25;;;;;;;17.45;100.00;100017.41;5205103;28;20107;-74
2023/08/27 06:54:18;;;;;;;4.57;1.30;;;;;;;17.76;100.00;100019.50;5207487;28;20049;-76
2023/08/27 06:56:48;;;;;;;3.85;1.45;;;;;;;17.88;100.00;100015.94;5207551;28;20445;-73
2023/08/27 06:59:18;;;;;;;3.45;1.60;;;;;;;18.22;100.00;100015.97;5207563;28;20039;-76
2023/08/27 07:01:49;;;;;;;5.80;1.25;;;;;;;18.41;100.00;100015.44;5210254;28;20032;-75
2023/08/27 07:04:19;;;;;;;3.55;1.27;;;;;;;18.38;100.00;100013.84;5207326;28;20040;-77
2023/08/27 07:06:49;;;;;;;4.22;1.45;;;;;;;18.24;100.00;100013.19;5207301;28;20033;-77
2023/08/27 07:09:22;;;;;;;3.38;1.90;;;;;;;18.32;100.00;100010.84;5227908;23;20052;-72
2023/08/27 07:11:52;;;;;;;2.53;1.40;;;;;;;18.13;100.00;100011.34;5209761;28;20049;-72
2023/08/27 07:14:22;;;;;;;3.70;1.45;;;;;;;18.20;100.00;100019.69;5209325;28;20155;-72
2023/08/27 07:16:53;;;;;;;4.18;1.60;;;;;;;18.08;100.00;100016.16;5204394;28;20033;-72
2023/08/27 07:19:23;;;;;;;4.68;1.55;;;;;;;18.32;100.00;100013.50;5185951;28;20044;-72
2023/08/27 07:21:53;;;;;;;4.30;1.38;;;;;;;18.20;100.00;100014.38;5183994;28;20495;-72
2023/08/27 07:24:24;;;;;;;4.05;1.70;;;;;;;18.20;100.00;100011.75;5183029;28;20128;-72
2023/08/27 07:26:54;;;;;;;3.78;1.30;;;;;;;18.16;100.00;100003.19;5182953;28;20583;-72
2023/08/27 07:29:24;;;;;;;3.50;1.48;;;;;;;18.21;100.00;99992.25;5183766;28;20026;-72
2023/08/27 07:31:55;;;;;;;3.63;1.60;;;;;;;18.33;100.00;99994.03;5187572;28;20371;-72
2023/08/27 07:34:25;;;;;;;5.93;1.58;;;;;;;18.27;100.00;99991.78;5185850;28;20413;-72
2023/08/27 07:36:55;;;;;;;2.42;1.42;;;;;;;18.30;100.00;99987.16;5181572;28;20546;-72
2023/08/27 07:39:26;;;;;;;3.88;1.25;;;;;;;18.50;100.00;99982.97;5187217;28;20029;-72
2023/08/27 07:41:56;;;;;;;2.72;1.42;;;;;;;18.56;100.00;99985.13;5181756;28;20061;-72
2023/08/27 07:44:26;;;;;;;2.92;1.27;;;;;;;18.58;100.00;99997.31;5185963;28;20025;-72
2023/08/27 07:46:57;;;;;;;1.85;1.23;;;;;;;18.64;100.00;99990.66;5191117;28;20021;-72
2023/08/27 07:49:27;;;;;;;2.95;1.30;;;;;;;18.57;100.00;99992.97;5192658;28;20033;-72
2023/08/27 07:51:57;;;;;;;2.13;1.30;;;;;;;18.54;100.00;99995.00;5187630;28;20256;-72
2023/08/27 07:54:28;;;;;;;4.65;2.03;;;;;;;18.46;100.00;99984.16;5186225;28;20328;-73
2023/08/27 07:56:58;;;;;;;7.68;1.88;;;;;;;18.48;100.00;99982.25;5187327;28;20030;-72
2023/08/27 07:59:28;;;;;;;3.53;1.40;;;;;;;18.62;100.00;99989.94;5183201;28;20033;-72
2023/08/27 08:01:58;;;;;;;3.78;1.30;;;;;;;18.59;100.00;99991.06;5190548;28;20136;-72
2023/08/27 08:04:29;;;;;;;2.22;1.27;;;;;;;18.52;100.00;99987.16;5183572;28;20430;-71
2023/08/27 08:06:59;;;;;;;2.00;1.30;;;;;;;18.52;100.00;99999.59;5189709;28;20045;-72
2023/08/27 08:09:29;;;;;;;4.25;1.80;;;;;;;18.70;100.00;100000.81;5188955;28;20098;-72
2023/08/27 08:11:59;;;;;;;4.00;1.20;;;;;;;18.72;100.00;100014.75;5185283;28;20112;-72
2023/08/27 08:14:30;;;;;;;4.03;1.20;;;;;;;18.76;100.00;100017.06;5182017;28;20022;-72
2023/08/27 08:17:00;;;;;;;1.85;1.10;;;;;;;18.79;100.00;100022.94;5183505;28;20045;-73
2023/08/27 08:19:30;;;;;;;3.15;1.30;;;;;;;18.73;100.00;100004.88;5187403;28;20096;-71
2023/08/27 08:22:01;;;;;;;3.92;1.30;;;;;;;18.87;100.00;100007.31;5187547;28;20036;-71
2023/08/27 08:24:31;;;;;;;3.55;1.27;;;;;;;18.87;100.00;100020.56;5182318;28;20079;-71
2023/08/27 08:27:04;;;;;;;2.95;1.20;;;;;;;18.96;100.00;100006.56;5182453;28;20033;-73
2023/08/27 08:29:34;;;;;;;3.53;1.30;;;;;;;19.05;100.00;100002.34;5188386;28;20033;-72
2023/08/27 08:32:05;;;;;;;5.65;1.08;;;;;;;19.09;100.00;100004.66;5183066;28;20028;-72
2023/08/27 08:34:35;;;;;;;2.88;1.08;;;;;;;19.19;100.00;100016.25;5189092;28;20072;-72
2023/08/27 08:37:05;;;;;;;2.72;1.30;;;;;;;19.33;100.00;100018.66;5191225;28;20021;-73
2023/08/27 08:39:36;;;;;;;4.13;1.15;;;;;;;19.29;100.00;100024.31;5184786;28;20025;-71
2023/08/27 08:42:18;;;;;;;2.60;1.00;;;;;;;19.29;100.00;100014.53;5186301;28;20034;-72
2023/08/27 08:45:10;;;;;;;3.42;1.20;;;;;;;19.48;100.00;100008.59;5188817;28;20072;-71
2023/08/27 08:47:43;;;;;;;3.42;1.20;;;;;;;19.49;100.00;100013.78;5188645;28;20033;-73
2023/08/27 08:50:15;;;;;;;2.17;1.17;;;;;;;19.58;99.87;100022.81;5187329;28;20052;-72
2023/08/27 08:52:48;;;;;;;3.78;1.30;;;;;;;19.44;100.00;100018.59;5186774;28;20095;-72
2023/08/27 08:55:20;;;;;;;2.08;1.20;;;;;;;19.28;100.00;100010.19;5214185;28;20029;-72
2023/08/27 08:58:03;;;;;;;2.00;1.23;;;;;;;19.26;100.00;100012.13;5187860;28;21297;-71
2023/08/27 09:00:34;;;;;;;3.78;1.65;;;;;;;19.34;100.00;100008.88;5187058;28;20041;-71
2023/08/27 09:03:05;;;;;;;3.72;1.38;;;;;;;19.23;100.00;100016.81;5190924;28;20036;-71
2023/08/27 09:05:37;;;;;;;2.78;1.40;;;;;;;19.16;100.00;100034.16;5189880;28;20056;-73
2023/08/27 09:08:10;;;;;;;2.88;1.40;;;;;;;19.09;100.00;100033.78;5203753;28;20069;-72
2023/08/27 09:10:40;;;;;;;2.03;1.10;;;;;;;19.25;100.00;100023.69;5185054;28;20040;-71
2023/08/27 09:13:11;;;;;;;2.90;1.23;;;;;;;19.42;100.00;100023.19;5187049;28;20517;-72
2023/08/27 09:15:42;;;;;;;4.88;1.58;;;;;;;19.51;100.00;100017.16;5189863;28;20515;-71
2023/08/27 09:18:12;;;;;;;2.80;1.33;;;;;;;19.49;100.00;100034.16;5183900;28;20037;-71
2023/08/27 09:20:43;;;;;;;4.13;1.10;;;;;;;20.08;100.00;100019.50;5182829;28;20655;-72
2023/08/27 09:23:14;;;;;;;3.40;1.27;;;;;;;20.56;97.35;100013.56;5188245;28;20021;-73
2023/08/27 09:25:44;;;;;;;4.57;1.15;;;;;;;20.67;95.24;100005.50;5192890;28;20548;-72
2023/08/27 09:28:16;;;;;;;1.90;1.30;;;;;;;20.90;95.83;99997.28;5185296;28;20112;-72
2023/08/27 09:30:47;;;;;;;2.00;1.20;;;;;;;21.17;95.60;100005.50;5186494;28;20049;-73
2023/08/27 09:33:17;;;;;;;3.00;1.15;;;;;;;21.53;91.47;99996.06;5182506;28;20407;-73
2023/08/27 09:35:48;;;;;;;7.88;1.38;;;;;;;22.12;90.18;99994.19;5183059;28;20184;-72
2023/08/27 09:38:18;;;;;;;1.52;1.13;;;;;;;22.60;85.50;99990.47;5182071;28;20049;-71
2023/08/27 09:40:48;;;;;;;4.53;1.40;;;;;;;22.66;85.31;99983.75;5182663;28;20026;-71
2023/08/27 09:43:26;;;;;;;2.53;1.30;;;;;;;22.88;84.24;99990.38;5182356;28;20543;-71
2023/08/27 09:45:56;;;;;;;4.80;1.25;;;;;;;22.62;84.73;99985.03;5182316;28;20411;-72
2023/08/27 09:48:28;;;;;;;2.20;1.20;;;;;;;22.75;85.64;99981.91;5181271;28;20051;-73
2023/08/27 09:51:05;;;;;;;9.05;1.42;;;;;;;22.57;86.04;99982.78;5184065;28;20329;-72
2023/08/27 09:53:35;;;;;;;3.50;1.25;;;;;;;22.77;84.97;99981.72;5185063;28;20037;-71
2023/08/27 09:56:06;;;;;;;3.72;1.25;;;;;;;22.82;85.31;99966.16;5188276;28;20404;-72
2023/08/27 09:58:39;;;;;;;4.75;1.50;;;;;;;23.08;84.60;99972.50;5181965;28;20037;-72
2023/08/27 10:01:09;;;;;;;4.40;1.23;;;;;;;23.14;83.93;99990.59;5184679;28;20124;-72
2023/08/27 10:03:39;;;;;;;1.95;1.10;;;;;;;22.88;83.18;99990.38;5183584;28;20487;-72
2023/08/27 10:06:10;;;;;;;3.88;1.30;;;;;;;23.06;82.92;99982.47;5188840;28;20742;-73
2023/08/27 10:08:54;;;;;;;2.30;1.30;;;;;;;23.00;84.30;99989.22;5186699;28;20037;-71
2023/08/27 10:11:24;;;;;;;1.98;1.10;;;;;;;22.81;84.48;99973.31;5186258;28;20209;-73
2023/08/27 10:13:57;;;;;;;7.18;1.30;;;;;;;22.93;84.65;99974.81;5188356;28;20509;-72
2023/08/27 10:16:30;;;;;;;2.58;1.23;;;;;;;23.02;83.09;99963.25;5183144;28;20353;-72
2023/08/27 10:19:01;;;;;;;2.53;1.15;;;;;;;23.08;81.67;99968.00;5184391;28;20056;-72
2023/08/27 10:21:32;;;;;;;1.95;1.00;;;;;;;23.45;80.18;99960.81;5185592;28;20038;-71
2023/08/27 10:24:05;;;;;;;2.42;1.00;;;;;;;23.38;81.82;99951.69;5207884;28;20033;-72
2023/08/27 10:26:35;;;;;;;3.17;1.20;;;;;;;23.40;80.87;99947.06;5188748;28;20033;-72
2023/08/27 10:29:06;;;;;;;1.85;1.20;;;;;;;23.39;82.07;99953.38;5187776;28;20038;-72
2023/08/27 10:31:37;;;;;;;2.10;0.90;;;;;;;23.35;76.89;99951.19;5189262;28;20025;-72
2023/08/27 10:34:08;;;;;;;3.03;1.25;;;;;;;23.20;79.51;99942.84;5193604;28;20861;-73
2023/08/27 10:36:41;;;;;;;2.72;1.10;;;;;;;23.26;79.59;99942.25;5187676;28;20041;-72
2023/08/27 10:39:14;;;;;;;2.83;1.10;;;;;;;23.32;77.65;99938.97;5187002;28;20364;-71
2023/08/27 10:41:45;;;;;;;2.47;1.30;;;;;;;23.33;77.58;99926.50;5194524;28;20402;-72
2023/08/27 10:44:19;;;;;;;2.47;1.00;;;;;;;23.35;79.75;99925.34;5188511;28;20045;-73
2023/08/27 10:47:09;;;;;;;2.43;1.10;;;;;;;23.51;79.51;99909.50;5189779;28;20041;-72
2023/08/27 10:49:42;;;;;;;2.80;1.38;;;;;;;23.53;77.71;99910.19;5189186;28;20025;-73
2023/08/27 10:52:20;;;;;;;2.45;1.27;;;;;;;23.55;81.05;99910.84;5190272;28;20029;-71
2023/08/27 10:54:59;;;;;;;2.45;1.10;;;;;;;23.33;79.30;99895.31;5191203;28;20531;-72
2023/08/27 10:57:36;;;;;;;2.08;1.10;;;;;;;23.52;79.57;99894.34;5194476;28;20517;-73
2023/08/27 11:00:12;;;;;;;4.30;1.20;;;;;;;23.65;79.49;99882.28;5189768;28;20033;-71
2023/08/27 11:03:21;;;;;;;2.15;1.10;;;;;;;23.78;79.62;99885.41;5192091;28;20339;-73
2023/08/27 11:06:11;;;;;;;2.58;1.25;;;;;;;23.44;79.86;99884.44;5186087;28;20107;-73
2023/08/27 11:08:42;;;;;;;5.68;1.42;;;;;;;23.53;82.25;99891.50;5168481;28;20037;-71
2023/08/27 11:11:13;;;;;;;2.90;0.95;;;;;;;24.10;78.55;99890.16;5184179;28;20037;-71
2023/08/27 11:13:46;;;;;;;3.10;1.30;;;;;;;24.10;79.36;99901.72;5182871;28;20522;-73
2023/08/27 11:16:17;;;;;;;1.85;0.85;;;;;;;24.37;79.06;99895.38;5183302;28;20041;-72
2023/08/27 11:18:48;;;;;;;1.55;0.82;;;;;;;24.61;79.32;99891.03;5185203;28;20025;-72
2023/08/27 11:21:20;;;;;;;2.67;0.90;;;;;;;24.78;80.45;99895.44;5183980;28;23174;-72
2023/08/27 11:24:24;;;;;;;2.35;1.15;;;;;;;24.56;76.38;99897.84;5191716;28;20025;-73
2023/08/27 11:26:55;;;;;;;2.90;1.20;;;;;;;24.52;77.67;99894.63;5192476;28;20487;-72
2023/08/27 11:29:26;;;;;;;1.48;0.80;;;;;;;24.46;74.16;99892.59;5189912;28;20037;-73
2023/08/27 11:32:00;;;;;;;3.15;0.98;;;;;;;24.37;75.45;99888.16;5187932;28;20029;-73
2023/08/27 11:34:35;;;;;;;2.63;1.08;;;;;;;24.20;76.26;99883.72;5188220;28;20056;-72
2023/08/27 11:37:06;;;;;;;3.60;1.30;;;;;;;24.34;77.67;99876.94;5189762;28;20553;-72
2023/08/27 11:39:38;;;;;;;4.10;1.08;;;;;;;24.60;75.89;99876.00;5191098;28;20035;-73
2023/08/27 11:42:10;;;;;;;2.90;1.02;;;;;;;24.51;75.06;99879.56;5188103;28;20061;-72